Time;durP1;ratioP1;P1;durP2;ratioP2;P2;SDS_P1;SDS_P2;PMS_P1;PMS_P2;Temp;Humidity;BMP_temperature;BMP_pressure;BME280_temperature;BME280_humidity;BME280_pressure;Samples;Min_cycle;Max_cycle;Signal;HPM_P1;HPM_P2
2022/10/23 00:00:07;;;;;;;;;;;;;;;;;;;;;
2022/10/23 00:03:17;;;;;;;;;;;10.00;99.90;;;;;;6065350;23;19921;-74
2022/10/23 00:08:54;;;;;;;;;;;10.10;99.90;;;;;;6005257;23;19917;-74
2022/10/23 00:11:33;;;;;;;;;;;10.10;99.90;;;;;;6018615;23;19927;-76
2022/10/23 00:14:26;;;;;;;;;;;10.10;99.90;;;;;;6018299;23;19914;-75
2022/10/23 00:17:23;;;;;;;;;;;10.20;99.90;;;;;;6018216;23;19914;-76
2022/10/23 00:20:27;;;;;;;;;;;10.20;99.90;;;;;;6042228;23;19924;-75
2022/10/23 00:23:10;;;;;;;;;;;10.20;99.90;;;;;;6074727;23;19945;-74
2022/10/23 00:26:19;;;;;;;;;;;10.30;99.90;;;;;;6124400;23;19912;-75
2022/10/23 00:29:01;;;;;;;;;;;10.30;99.90;;;;;;6101120;23;19919;-73
2022/10/23 00:31:56;;;;;;;;;;;10.30;99.90;;;;;;6113305;23;19924;-75
2022/10/23 00:34:50;;;;;;;;;;;10.40;99.90;;;;;;6104956;23;19912;-75
2022/10/23 00:37:34;;;;;;;;;;;10.40;99.90;;;;;;6129614;23;19990;-75
2022/10/23 00:40:20;;;;;;;;;;;10.60;99.90;;;;;;6080385;23;19959;-75
2022/10/23 00:43:10;;;;;;;;;;;10.40;99.90;;;;;;6104489;23;20438;-75
2022/10/23 00:46:19;;;;;;;;;;;10.30;99.90;;;;;;6129623;23;20424;-76
2022/10/23 00:49:24;;;;;;;;;;;10.30;99.90;;;;;;6102444;23;19912;-75
2022/10/23 00:55:51;;;;;;;;;;;10.10;99.90;;;;;;6123542;23;19960;-74
2022/10/23 01:05:12;;;;;;;;;;;10.20;99.90;;;;;;6053552;23;19917;-74
2022/10/23 01:11:29;;;;;;;;;;;10.20;99.90;;;;;;6038982;23;19963;-75
2022/10/23 01:14:19;;;;;;;;;;;10.20;99.90;;;;;;6050090;23;20309;-75
2022/10/23 01:16:56;;;;;;;;;;;10.20;99.90;;;;;;6050149;23;19948;-74
2022/10/23 01:23:23;;;;;;;;;;;10.10;99.90;;;;;;6128463;23;19916;-75
2022/10/23 01:26:06;;;;;;;;;;;10.20;99.90;;;;;;6130207;23;20079;-75
2022/10/23 01:29:14;;;;;;;;;;;10.10;99.90;;;;;;6185044;23;19919;-76
2022/10/23 01:32:14;;;;;;;;;;;10.10;99.90;;;;;;6151921;23;20307;-76
2022/10/23 01:35:15;;;;;;;;;;;9.90;99.90;;;;;;6136652;23;19951;-75
2022/10/23 01:38:24;;;;;;;;;;;9.90;99.90;;;;;;6154770;23;19911;-76
2022/10/23 01:41:43;;;;;;;;;;;;;;;;;;;;;
2022/10/23 01:44:33;;;;;;;;;;;9.80;99.90;;;;;;6125331;23;19919;-75
2022/10/23 01:47:16;;;;;;;;;;;9.70;99.90;;;;;;6099007;23;20005;-76
2022/10/23 01:49:49;;;;;;;;;;;9.50;99.90;;;;;;6099691;23;19964;-76
2022/10/23 01:52:44;;;;;;;;;;;9.70;99.90;;;;;;6104672;23;19963;-75
2022/10/23 01:55:29;;;;;;;;;;;9.70;99.90;;;;;;6097476;23;19913;-74
2022/10/23 01:58:22;;;;;;;;;;;9.70;99.90;;;;;;6077367;23;19912;-76
2022/10/23 02:00:54;;;;;;;;;;;9.80;99.90;;;;;;6100199;23;20324;-75
2022/10/23 02:04:13;;;;;;;;;;;9.80;99.90;;;;;;6146689;23;19917;-75
2022/10/23 02:10:18;;;;;;;;;;;9.70;99.90;;;;;;6043057;23;19920;-74
2022/10/23 02:16:39;;;;;;;;;;;9.80;99.90;;;;;;6084565;23;19964;-75
2022/10/23 02:19:31;;;;;;;;;;;9.80;99.90;;;;;;6070543;23;19923;-74
2022/10/23 02:22:32;;;;;;;;;;;9.90;99.90;;;;;;6095097;23;19917;-75
2022/10/23 02:25:31;;;;;;;;;;;9.70;99.90;;;;;;6073322;23;20304;-75
2022/10/23 02:28:37;;;;;;;;;;;9.90;99.90;;;;;;6033726;23;19976;-74
2022/10/23 02:34:49;;;;;;;;;;;10.00;99.90;;;;;;6095318;23;19935;-75
2022/10/23 02:38:01;;;;;;;;;;;10.00;99.90;;;;;;6068929;23;20354;-74
2022/10/23 02:41:07;;;;;;;;;;;9.90;99.90;;;;;;6159537;23;19920;-75
2022/10/23 02:44:01;;;;;;;;;;;9.80;99.90;;;;;;6159296;23;19919;-76
2022/10/23 02:47:10;;;;;;;;;;;;;;;;;;;;;
2022/10/23 02:53:02;;;;;;;;;;;9.80;99.90;;;;;;6072136;23;19912;-75
2022/10/23 03:06:22;;;;;;;;;;;10.10;99.90;;;;;;6014272;23;19921;-76
2022/10/23 03:09:29;;;;;;;;;;;10.00;99.90;;;;;;5925673;24;20236;-75
2022/10/23 03:12:50;;;;;;;;;;;10.10;99.90;;;;;;6002812;23;19942;-75
2022/10/23 03:22:46;;;;;;;;;;;10.00;99.90;;;;;;6012381;23;19993;-74
2022/10/23 03:32:20;;;;;;;;;;;10.10;99.90;;;;;;6037842;23;19924;-76
2022/10/23 03:38:48;;;;;;;;;;;;;;;;;;;;;
2022/10/23 03:41:59;;;;;;;;;;;10.10;99.90;;;;;;6159821;23;19966;-74
2022/10/23 03:45:12;;;;;;;;;;;;;;;;;;;;;
2022/10/23 03:51:15;;;;;;;;;;;10.20;99.90;;;;;;6157723;23;19987;-75
2022/10/23 04:00:42;;;;;;;;;;;10.20;99.90;;;;;;6159459;23;19950;-75
2022/10/23 04:07:08;;;;;;;;;;;10.30;99.90;;;;;;6099738;23;19913;-75
2022/10/23 04:09:46;;;;;;;;;;;10.30;99.90;;;;;;6063056;23;20299;-76
2022/10/23 04:16:24;;;;;;;;;;;10.30;99.90;;;;;;6169123;23;19912;-74
2022/10/23 04:19:28;;;;;;;;;;;;;;;;;;;;;
2022/10/23 04:22:30;;;;;;;;;;;10.60;99.90;;;;;;6155431;23;19916;-74
2022/10/23 04:25:40;;;;;;;;;;;10.30;99.90;;;;;;6119734;23;19923;-75
2022/10/23 04:28:53;;;;;;;;;;;10.50;99.90;;;;;;6136625;23;19969;-75
2022/10/23 04:31:19;;;;;;;;;;;10.50;99.90;;;;;;6071007;23;19917;-76
2022/10/23 04:33:47;;;;;;;;;;;10.50;99.90;;;;;;6048767;23;19920;-75
2022/10/23 04:36:31;;;;;;;;;;;10.50;99.90;;;;;;6115178;23;19912;-75
2022/10/23 04:38:57;;;;;;;;;;;10.70;99.90;;;;;;6160974;23;20319;-75
2022/10/23 04:41:44;;;;;;;;;;;10.60;99.90;;;;;;6135940;23;19923;-75
2022/10/23 04:59:13;;;;;;;;;;;;;;;;;;;;;
2022/10/23 05:10:17;;;;;;;;;;;;;;;;;;;;;
2022/10/23 05:12:30;;;;;;;;;;;10.60;99.90;;;;;;6007487;23;20406;-75
2022/10/23 05:41:54;;;;;;;;;;;;;;;;;;;;;
2022/10/23 05:47:36;;;;;;;;;;;10.50;99.90;;;;;;6010550;23;19905;-75
2022/10/23 06:08:57;;;;;;;;;;;;;;;;;;;;;
2022/10/23 06:19:23;;;;;;;;;;;;;;;;;;;;;
2022/10/23 06:22:53;;;;;;;;;;;;;;;;;;;;;
2022/10/23 06:26:03;;;;;;;;;;;10.50;99.90;;;;;;5885032;24;19999;-75
2022/10/23 06:44:20;;;;;;;;;;;10.90;99.90;;;;;;5898602;24;19918;-74
2022/10/23 06:54:51;;;;;;;;;;;10.90;99.90;;;;;;5870777;24;20314;-75
2022/10/23 07:22:59;;;;;;;;;;;11.40;99.90;;;;;;5791120;24;19925;-74
2022/10/23 07:33:16;;;;;;;;;;;11.40;99.90;;;;;;5952978;24;20250;-75
2022/10/23 07:43:41;;;;;;;;;;;;;;;;;;;;;
2022/10/23 07:49:59;;;;;;;;;;;11.60;99.90;;;;;;5898207;24;19917;-77
2022/10/23 07:52:27;;;;;;;;;;;11.70;99.90;;;;;;5853540;24;19990;-75
2022/10/23 07:54:53;;;;;;;;;;;11.70;99.90;;;;;;5938984;23;19969;-72
2022/10/23 07:57:18;;;;;;;;;;;11.70;99.90;;;;;;6056488;23;19924;-73
2022/10/23 07:59:44;;;;;;;;;;;11.70;99.90;;;;;;6159852;23;20235;-72
2022/10/23 08:02:14;;;;;;;;;;;11.70;99.90;;;;;;6135519;23;19916;-70
2022/10/23 08:04:42;;;;;;;;;;;11.70;99.90;;;;;;6159843;23;19925;-71
2022/10/23 08:07:08;;;;;;;;;;;11.80;99.90;;;;;;6160261;23;19916;-71
2022/10/23 08:09:34;;;;;;;;;;;11.80;99.90;;;;;;6135606;23;19917;-71
2022/10/23 08:12:00;;;;;;;;;;;11.90;99.90;;;;;;6135602;23;19963;-71
2022/10/23 08:14:26;;;;;;;;;;;11.90;99.90;;;;;;6135051;23;19916;-73
2022/10/23 08:16:51;;;;;;;;;;;11.90;99.90;;;;;;6160198;23;19916;-73
2022/10/23 08:19:17;;;;;;;;;;;12.00;99.90;;;;;;6111066;23;20249;-74
2022/10/23 08:21:43;;;;;;;;;;;12.00;99.90;;;;;;6135495;23;19955;-73
2022/10/23 08:24:12;;;;;;;;;;;12.10;99.90;;;;;;6159843;23;19920;-71
2022/10/23 08:26:37;;;;;;;;;;;12.20;99.90;;;;;;6159844;23;19916;-71
2022/10/23 08:29:03;;;;;;;;;;;12.20;99.90;;;;;;6160182;23;20339;-70
2022/10/23 08:31:28;;;;;;;;;;;12.20;99.90;;;;;;6160024;23;20238;-71
2022/10/23 08:33:54;;;;;;;;;;;12.40;99.90;;;;;;6159981;23;19947;-71
2022/10/23 08:36:21;;;;;;;;;;;12.30;99.90;;;;;;6186016;23;19916;-69
2022/10/23 08:38:47;;;;;;;;;;;12.40;99.90;;;;;;6135438;23;19917;-72
2022/10/23 08:41:22;;;;;;;;;;;12.50;99.90;;;;;;6160116;23;19916;-71
2022/10/23 08:43:50;;;;;;;;;;;12.50;99.90;;;;;;6160295;23;20323;-71
2022/10/23 08:46:17;;;;;;;;;;;12.50;99.90;;;;;;6160137;23;20312;-71
2022/10/23 08:48:48;;;;;;;;;;;12.50;99.90;;;;;;6135390;23;19939;-71
2022/10/23 08:51:20;;;;;;;;;;;12.60;99.90;;;;;;6135474;23;19916;-71
2022/10/23 08:53:51;;;;;;;;;;;12.70;99.90;;;;;;6160128;23;19916;-72
2022/10/23 08:56:16;;;;;;;;;;;12.70;99.90;;;;;;6160114;23;19916;-71
2022/10/23 08:58:45;;;;;;;;;;;12.80;99.90;;;;;;6159854;23;20042;-70
2022/10/23 09:01:33;;;;;;;;;;;12.90;99.90;;;;;;6135568;23;19996;-70
2022/10/23 09:03:59;;;;;;;;;;;13.00;99.90;;;;;;6135383;23;19920;-70
2022/10/23 09:06:34;;;;;;;;;;;13.00;99.90;;;;;;6160087;23;19967;-71
2022/10/23 09:09:18;;;;;;;;;;;13.00;99.90;;;;;;6135286;23;19924;-72
2022/10/23 09:11:50;;;;;;;;;;;13.10;99.90;;;;;;6159978;23;20278;-70
2022/10/23 09:14:41;;;;;;;;;;;13.10;99.90;;;;;;6186040;23;20307;-70
2022/10/23 09:17:07;;;;;;;;;;;13.10;99.90;;;;;;6130452;23;19931;-70
2022/10/23 09:19:32;;;;;;;;;;;13.20;99.90;;;;;;6136998;23;20263;-71
2022/10/23 09:21:58;;;;;;;;;;;13.30;99.90;;;;;;6161791;23;19952;-70
2022/10/23 09:24:25;;;;;;;;;;;13.40;99.90;;;;;;6161741;23;19954;-71
2022/10/23 09:26:52;;;;;;;;;;;13.40;99.90;;;;;;6137023;23;19916;-71
2022/10/23 09:29:21;;;;;;;;;;;13.40;99.90;;;;;;6136933;23;19920;-71
2022/10/23 09:31:48;;;;;;;;;;;13.50;99.90;;;;;;6162022;23;19970;-72
2022/10/23 09:34:21;;;;;;;;;;;13.50;99.90;;;;;;6161609;23;19923;-70
2022/10/23 09:36:55;;;;;;;;;;;13.60;99.90;;;;;;6161614;23;19970;-71
2022/10/23 09:39:22;;;;;;;;;;;13.60;99.90;;;;;;6161407;23;19923;-71
2022/10/23 09:41:48;;;;;;;;;;;13.80;99.90;;;;;;6161678;23;19948;-70
2022/10/23 09:44:21;;;;;;;;;;;13.80;99.90;;;;;;6161602;23;20231;-72
2022/10/23 09:46:54;;;;;;;;;;;13.80;99.90;;;;;;6161598;23;20334;-72
2022/10/23 09:49:22;;;;;;;;;;;13.80;99.90;;;;;;6161121;23;19917;-72
2022/10/23 09:52:06;;;;;;;;;;;13.80;99.90;;;;;;6136998;23;20004;-71
2022/10/23 09:54:33;;;;;;;;;;;13.80;99.90;;;;;;6161412;23;19956;-71
2022/10/23 09:57:04;;;;;;;;;;;13.80;99.90;;;;;;6187765;23;19920;-71
2022/10/23 09:59:30;;;;;;;;;;;13.90;99.90;;;;;;6136508;23;20196;-70
2022/10/23 10:01:57;;;;;;;;;;;13.90;99.90;;;;;;6161455;23;19950;-71
2022/10/23 10:04:32;;;;;;;;;;;13.90;99.90;;;;;;6136815;23;20323;-70
2022/10/23 10:07:00;;;;;;;;;;;13.90;99.90;;;;;;6161321;23;20269;-70
2022/10/23 10:09:26;;;;;;;;;;;14.00;99.90;;;;;;6161011;23;19951;-71
2022/10/23 10:11:53;;;;;;;;;;;14.00;99.90;;;;;;6160997;23;20282;-71
2022/10/23 10:14:41;;;;;;;;;;;14.00;99.90;;;;;;6161274;23;20266;-70
2022/10/23 10:17:19;;;;;;;;;;;14.10;99.90;;;;;;6187529;23;19916;-71
2022/10/23 10:19:52;;;;;;;;;;;14.00;99.90;;;;;;6160844;23;19967;-71
2022/10/23 10:22:37;;;;;;;;;;;14.10;99.90;;;;;;6136629;23;19994;-71
2022/10/23 10:25:11;;;;;;;;;;;14.10;99.90;;;;;;6160747;23;19916;-73
2022/10/23 10:27:36;;;;;;;;;;;14.20;99.90;;;;;;6161090;23;19987;-72
2022/10/23 10:30:09;;;;;;;;;;;14.30;99.90;;;;;;6160395;23;19955;-72
2022/10/23 10:32:35;;;;;;;;;;;14.40;99.90;;;;;;6136024;23;19939;-71
2022/10/23 10:35:15;;;;;;;;;;;14.40;99.90;;;;;;6135742;23;20311;-70
2022/10/23 10:38:01;;;;;;;;;;;14.50;99.90;;;;;;6136097;23;19916;-75
2022/10/23 10:40:32;;;;;;;;;;;14.50;99.90;;;;;;6135907;23;20299;-73
2022/10/23 10:43:01;;;;;;;;;;;14.50;99.90;;;;;;6136050;23;19990;-77
2022/10/23 10:45:32;;;;;;;;;;;14.60;99.90;;;;;;6136255;23;19916;-73
2022/10/23 10:48:16;;;;;;;;;;;14.60;99.90;;;;;;6160671;23;20284;-71
2022/10/23 10:51:03;;;;;;;;;;;14.70;99.90;;;;;;6136391;23;19966;-72
2022/10/23 10:53:48;;;;;;;;;;;14.70;99.90;;;;;;6161036;23;20319;-72
2022/10/23 10:56:15;;;;;;;;;;;14.80;99.90;;;;;;6160845;23;19938;-75
2022/10/23 10:58:43;;;;;;;;;;;14.80;99.90;;;;;;6135693;23;20338;-72
2022/10/23 11:01:27;;;;;;;;;;;14.90;99.90;;;;;;6160252;23;19916;-72
2022/10/23 11:03:56;;;;;;;;;;;14.90;99.90;;;;;;6135880;23;19913;-73
2022/10/23 11:06:23;;;;;;;;;;;15.00;99.90;;;;;;6135672;23;19912;-73
2022/10/23 11:08:49;;;;;;;;;;;15.10;99.90;;;;;;6160101;23;19920;-72
2022/10/23 11:11:17;;;;;;;;;;;15.00;99.90;;;;;;6160253;23;20275;-73
2022/10/23 11:13:43;;;;;;;;;;;15.00;99.90;;;;;;6135918;23;19990;-73
2022/10/23 11:16:12;;;;;;;;;;;15.00;99.90;;;;;;6160194;23;20322;-73
2022/10/23 11:18:40;;;;;;;;;;;15.00;99.90;;;;;;6160527;23;19995;-72
2022/10/23 11:21:16;;;;;;;;;;;15.10;99.90;;;;;;6160161;23;19943;-74
2022/10/23 11:24:01;;;;;;;;;;;15.10;99.90;;;;;;6160306;23;19912;-71
2022/10/23 11:26:35;;;;;;;;;;;15.20;99.90;;;;;;6135657;23;19923;-71
2022/10/23 11:29:17;;;;;;;;;;;15.20;99.90;;;;;;6160429;23;20000;-72
2022/10/23 11:31:43;;;;;;;;;;;15.20;99.90;;;;;;6135800;23;19916;-72
2022/10/23 11:34:31;;;;;;;;;;;15.30;99.90;;;;;;6160567;23;19920;-70
2022/10/23 11:37:00;;;;;;;;;;;15.30;99.90;;;;;;6160805;23;19916;-71
2022/10/23 11:39:32;;;;;;;;;;;15.40;99.90;;;;;;6159988;23;20218;-72
2022/10/23 11:42:10;;;;;;;;;;;15.40;99.90;;;;;;6135825;23;19970;-72
2022/10/23 11:44:47;;;;;;;;;;;15.40;99.90;;;;;;6135415;23;19965;-72
2022/10/23 11:47:32;;;;;;;;;;;15.50;99.90;;;;;;6160415;23;20003;-71
2022/10/23 11:50:07;;;;;;;;;;;15.50;99.90;;;;;;6160108;23;20341;-72
2022/10/23 11:52:37;;;;;;;;;;;15.60;99.90;;;;;;6135511;23;19916;-72
2022/10/23 11:55:14;;;;;;;;;;;15.70;99.90;;;;;;6159927;23;20361;-74
2022/10/23 11:57:45;;;;;;;;;;;15.70;99.90;;;;;;6159985;23;19947;-78
2022/10/23 12:00:22;;;;;;;;;;;15.80;99.90;;;;;;6159961;23;19955;-75
2022/10/23 12:02:59;;;;;;;;;;;15.90;99.90;;;;;;6135626;23;19916;-77
2022/10/23 12:05:28;;;;;;;;;;;15.90;99.90;;;;;;6135346;23;19916;-74
2022/10/23 12:07:58;;;;;;;;;;;15.80;99.90;;;;;;6159782;23;19935;-75
2022/10/23 12:10:34;;;;;;;;;;;15.80;99.90;;;;;;6159448;23;19916;-74
2022/10/23 12:13:02;;;;;;;;;;;15.80;99.90;;;;;;6158740;23;19974;-74
2022/10/23 12:15:29;;;;;;;;;;;15.80;99.90;;;;;;6135152;23;19920;-72
2022/10/23 12:18:06;;;;;;;;;;;15.80;99.90;;;;;;6160019;23;19912;-75
2022/10/23 12:20:43;;;;;;;;;;;15.80;99.90;;;;;;6160046;23;19962;-75
2022/10/23 12:23:24;;;;;;;;;;;15.70;99.90;;;;;;6145360;23;19995;-75
2022/10/23 12:25:52;;;;;;;;;;;15.70;99.90;;;;;;6153528;23;19916;-74
2022/10/23 12:28:21;;;;;;;;;;;15.70;99.90;;;;;;6177935;23;19944;-74
2022/10/23 12:30:59;;;;;;;;;;;15.60;99.90;;;;;;6157251;23;19916;-73
2022/10/23 12:33:28;;;;;;;;;;;15.60;99.90;;;;;;6138208;23;20315;-74
2022/10/23 12:35:59;;;;;;;;;;;15.70;99.90;;;;;;6160160;23;19924;-75
2022/10/23 12:38:32;;;;;;;;;;;15.70;99.90;;;;;;6135179;23;19922;-71
2022/10/23 12:47:39;;;;;;;;;;;15.70;99.90;;;;;;6159807;23;19912;-81
2022/10/23 12:53:49;;;;;;;;;;;15.60;99.90;;;;;;6125960;23;19916;-76
2022/10/23 12:56:30;;;;;;;;;;;15.60;99.90;;;;;;6134791;23;20219;-80
2022/10/23 12:59:00;;;;;;;;;;;15.70;99.90;;;;;;6136160;23;19963;-78
2022/10/23 13:01:28;;;;;;;;;;;15.70;99.90;;;;;;6137262;23;19916;-76
2022/10/23 13:03:58;;;;;;;;;;;15.60;99.90;;;;;;6161681;23;19919;-72
2022/10/23 13:06:24;;;;;;;;;;;15.60;99.90;;;;;;6161934;23;19983;-72
2022/10/23 13:08:51;;;;;;;;;;;15.60;99.90;;;;;;6161223;23;19912;-71
2022/10/23 13:11:17;;;;;;;;;;;15.60;99.90;;;;;;6161805;23;19919;-73
2022/10/23 13:13:43;;;;;;;;;;;15.60;99.90;;;;;;6161473;23;19995;-73
2022/10/23 13:16:12;;;;;;;;;;;15.60;99.90;;;;;;6161260;23;20346;-72
2022/10/23 13:18:40;;;;;;;;;;;15.60;99.90;;;;;;6161440;23;19923;-72
2022/10/23 13:21:12;;;;;;;;;;;15.60;99.90;;;;;;6137219;23;19938;-72
2022/10/23 13:23:40;;;;;;;;;;;15.60;99.90;;;;;;6137298;23;20312;-71
2022/10/23 13:29:49;;;;;;;;;;;15.50;99.90;;;;;;6157269;23;20239;-76
2022/10/23 13:32:47;;;;;;;;;;;;;;;;;;;;;
2022/10/23 13:35:28;;;;;;;;;;;15.50;99.90;;;;;;6131457;23;20335;-72
2022/10/23 13:38:09;;;;;;;;;;;15.50;99.90;;;;;;6105754;23;19912;-74
2022/10/23 13:44:13;;;;;;;;;;;15.50;99.90;;;;;;6130718;23;19952;-75
2022/10/23 14:14:45;;;;;;;;;;;15.50;99.90;;;;;;6066914;23;20339;-78
2022/10/23 14:20:28;;;;;;;;;;;15.40;99.90;;;;;;6065816;23;20349;-75
2022/10/23 14:22:54;;;;;;;;;;;15.50;99.90;;;;;;6043081;23;19917;-74
2022/10/23 14:25:38;;;;;;;;;;;15.50;99.90;;;;;;6111120;23;19912;-76
2022/10/23 14:55:08;;;;;;;;;;;15.50;99.90;;;;;;6203532;23;19916;-82
2022/10/23 15:05:01;;;;;;;;;;;15.70;99.90;;;;;;6185689;23;19911;-80
2022/10/23 15:07:48;;;;;;;;;;;15.60;99.90;;;;;;6134997;23;19987;-80
2022/10/23 15:10:41;;;;;;;;;;;15.60;99.90;;;;;;6134636;23;19912;-77
2022/10/23 15:13:24;;;;;;;;;;;15.70;99.90;;;;;;6134885;23;19913;-80
2022/10/23 15:15:59;;;;;;;;;;;15.80;99.90;;;;;;6134867;23;19918;-77
2022/10/23 15:22:17;;;;;;;;;;;15.80;99.90;;;;;;6099742;23;19920;-80
2022/10/23 15:28:30;;;;;;;;;;;15.80;99.90;;;;;;5949574;24;20266;-79
2022/10/23 17:06:56;;;;;;;;;;;14.80;99.90;;;;;;6191260;23;19916;-83
2022/10/23 17:09:45;;;;;;;;;;;14.70;99.90;;;;;;6137764;23;19935;-80
2022/10/23 20:07:47;;;;;;;;;;;15.10;99.90;;;;;;6216079;23;19963;-77
2022/10/23 20:10:15;;;;;;;;;;;15.10;99.90;;;;;;6163389;23;19916;-76
2022/10/23 20:12:41;;;;;;;;;;;15.10;99.90;;;;;;6191170;23;20322;-76
2022/10/23 20:18:29;;;;;;;;;;;15.00;99.90;;;;;;6215538;23;19966;-77
2022/10/23 20:20:55;;;;;;;;;;;14.90;99.90;;;;;;6164309;23;19916;-78
2022/10/23 20:23:26;;;;;;;;;;;14.80;99.90;;;;;;6164488;23;19916;-77
2022/10/23 20:26:01;;;;;;;;;;;14.80;99.90;;;;;;6128260;23;19919;-76
2022/10/23 20:29:04;;;;;;;;;;;14.80;99.90;;;;;;6104113;23;19912;-78
2022/10/23 20:39:28;;;;;;;;;;;14.80;99.90;;;;;;5951901;24;19921;-80
2022/10/23 21:00:25;;;;;;;;;;;14.70;99.90;;;;;;5935528;24;19965;-78
2022/10/23 21:03:02;;;;;;;;;;;14.70;99.90;;;;;;5955340;24;20357;-76
2022/10/23 21:05:36;;;;;;;;;;;14.70;99.90;;;;;;5999833;23;19913;-74
2022/10/23 21:21:59;;;;;;;;;;;14.60;99.90;;;;;;5852877;24;19919;-77
2022/10/23 21:24:40;;;;;;;;;;;14.60;99.90;;;;;;5894578;24;19919;-79
2022/10/23 21:34:15;;;;;;;;;;;14.40;99.90;;;;;;6067006;23;19934;-79
2022/10/23 22:11:59;;;;;;;;;;;14.10;99.90;;;;;;6186773;23;19939;-78
2022/10/23 22:20:50;;;;;;;;;;;13.90;99.90;;;;;;6102681;23;19924;-77
